Time;durP1;ratioP1;P1;durP2;ratioP2;P2;SDS_P1;SDS_P2;PMS_P1;PMS_P2;Temp;Humidity;BMP_temperature;BMP_pressure;BME280_temperature;BME280_humidity;BME280_pressure;Samples;Min_cycle;Max_cycle;Signal;HPM_P1;HPM_P2
2023/05/02 00:02:12;;;;;;;11.23;4.20;;;10.10;99.90;;;;;;4963453;28;21183;-64
2023/05/02 00:04:38;;;;;;;9.77;3.90;;;10.10;99.90;;;;;;4991906;28;20045;-63
2023/05/02 00:07:04;;;;;;;14.30;4.32;;;10.10;99.90;;;;;;4992263;28;20824;-63
2023/05/02 00:09:30;;;;;;;8.57;3.60;;;10.10;99.90;;;;;;5001064;28;20050;-62
2023/05/02 00:11:55;;;;;;;11.23;3.63;;;10.10;99.90;;;;;;4994675;28;20045;-63
2023/05/02 00:14:21;;;;;;;8.40;3.28;;;10.00;99.90;;;;;;5011261;28;20042;-63
2023/05/02 00:16:47;;;;;;;11.35;3.35;;;10.00;99.90;;;;;;4997320;28;20045;-63
2023/05/02 00:19:13;;;;;;;6.78;3.10;;;10.10;99.90;;;;;;4961434;28;20045;-64
2023/05/02 00:21:38;;;;;;;8.57;3.15;;;10.00;99.90;;;;;;4992831;28;20033;-62
2023/05/02 00:24:04;;;;;;;8.63;3.30;;;10.00;99.90;;;;;;4995800;28;20046;-64
2023/05/02 00:26:31;;;;;;;12.30;3.75;;;10.00;99.90;;;;;;4984249;28;20525;-63
2023/05/02 00:28:57;;;;;;;8.13;3.20;;;10.00;99.90;;;;;;4977449;28;20059;-63
2023/05/02 00:31:23;;;;;;;12.25;3.55;;;10.00;99.90;;;;;;4995105;28;20041;-62
2023/05/02 00:33:49;;;;;;;10.15;3.70;;;10.00;99.90;;;;;;4992679;28;20050;-63
2023/05/02 00:36:16;;;;;;;11.25;3.83;;;10.00;99.90;;;;;;4993888;28;20393;-63
2023/05/02 00:38:43;;;;;;;10.45;3.75;;;10.00;99.90;;;;;;4994008;28;20072;-64
2023/05/02 00:41:09;;;;;;;10.75;3.55;;;10.00;99.90;;;;;;4991891;28;20523;-64
2023/05/02 00:43:36;;;;;;;9.70;3.53;;;10.00;99.90;;;;;;4994354;28;20088;-62
2023/05/02 00:46:02;;;;;;;13.63;3.15;;;10.00;99.90;;;;;;4990455;28;20054;-63
2023/05/02 00:48:28;;;;;;;11.05;3.28;;;10.00;99.90;;;;;;4992790;28;20053;-63
2023/05/02 00:50:56;;;;;;;13.82;3.90;;;10.00;99.90;;;;;;4994857;28;20049;-63
2023/05/02 00:53:22;;;;;;;9.20;3.78;;;10.00;99.90;;;;;;4991576;28;20439;-64
2023/05/02 00:55:48;;;;;;;9.07;3.35;;;10.10;99.90;;;;;;4993568;28;20048;-63
2023/05/02 00:58:16;;;;;;;11.85;3.67;;;10.00;99.90;;;;;;4965939;28;20452;-64
2023/05/02 01:01:03;;;;;;;10.25;3.15;;;10.00;99.90;;;;;;4989205;28;20064;-62
2023/05/02 01:03:41;;;;;;;9.60;3.92;;;10.00;99.90;;;;;;4988266;28;20164;-64
2023/05/02 01:06:27;;;;;;;12.77;4.05;;;10.00;99.90;;;;;;4962077;28;20661;-63
2023/05/02 01:09:18;;;;;;;14.82;3.75;;;10.00;99.90;;;;;;4985926;28;20112;-63
2023/05/02 01:12:11;;;;;;;15.52;4.40;;;10.00;99.90;;;;;;4985190;28;20050;-63
2023/05/02 01:14:52;;;;;;;19.92;4.47;;;10.00;99.90;;;;;;4990860;28;20076;-63
2023/05/02 01:17:19;;;;;;;18.73;4.60;;;9.90;99.90;;;;;;4974171;28;20940;-63
2023/05/02 01:19:57;;;;;;;13.90;4.03;;;9.90;99.90;;;;;;4993206;28;20042;-63
2023/05/02 01:22:27;;;;;;;14.95;4.65;;;9.80;99.90;;;;;;5004453;28;20132;-63
2023/05/02 01:25:08;;;;;;;22.02;4.30;;;9.70;99.90;;;;;;4990245;28;20152;-63
2023/05/02 01:27:49;;;;;;;17.15;5.05;;;9.70;99.90;;;;;;4989706;28;20041;-63
2023/05/02 01:30:17;;;;;;;17.77;5.05;;;9.60;99.90;;;;;;4991315;28;20591;-64
2023/05/02 01:32:46;;;;;;;24.80;5.10;;;9.50;99.90;;;;;;5002042;28;20046;-62
2023/05/02 01:35:15;;;;;;;22.80;5.72;;;9.50;99.90;;;;;;4991516;28;20056;-64
2023/05/02 01:37:43;;;;;;;22.35;5.22;;;9.40;99.90;;;;;;4980907;28;20661;-63
2023/05/02 01:40:10;;;;;;;25.95;5.45;;;9.40;99.90;;;;;;4990391;28;20053;-64
2023/05/02 01:42:38;;;;;;;20.90;4.53;;;9.30;99.90;;;;;;4991634;28;20081;-63
2023/05/02 01:45:07;;;;;;;21.65;5.03;;;9.30;99.90;;;;;;4988627;28;20046;-63
2023/05/02 01:47:35;;;;;;;19.55;4.25;;;9.20;99.90;;;;;;4987646;28;20038;-63
2023/05/02 01:50:04;;;;;;;16.45;4.35;;;9.10;99.90;;;;;;4976114;28;20132;-62
2023/05/02 01:52:30;;;;;;;21.45;4.57;;;9.20;99.90;;;;;;4964444;28;20048;-64
2023/05/02 01:54:59;;;;;;;20.40;5.45;;;9.10;99.90;;;;;;4988863;28;20824;-63
2023/05/02 01:57:26;;;;;;;21.98;4.80;;;9.10;99.90;;;;;;4973032;28;20136;-63
2023/05/02 01:59:55;;;;;;;23.45;5.53;;;9.00;99.90;;;;;;4990254;28;20444;-63
2023/05/02 02:02:26;;;;;;;23.65;4.63;;;9.00;99.90;;;;;;4988307;28;20073;-63
2023/05/02 02:04:55;;;;;;;26.00;5.10;;;9.00;99.90;;;;;;4988832;28;20092;-64
2023/05/02 02:07:21;;;;;;;28.17;5.10;;;8.90;99.90;;;;;;4995846;28;20052;-63
2023/05/02 02:09:47;;;;;;;29.95;6.07;;;8.90;99.90;;;;;;4994463;28;20052;-63
2023/05/02 02:12:27;;;;;;;30.00;5.43;;;8.90;99.90;;;;;;4988274;28;20046;-63
2023/05/02 02:14:57;;;;;;;26.65;5.38;;;8.90;99.90;;;;;;4960456;28;20489;-64
2023/05/02 02:17:35;;;;;;;34.58;5.40;;;8.80;99.90;;;;;;4985249;28;20062;-63
2023/05/02 02:20:05;;;;;;;28.23;6.00;;;8.80;99.90;;;;;;4989656;28;20050;-63
2023/05/02 02:22:35;;;;;;;33.20;5.63;;;8.70;99.90;;;;;;4988037;28;20071;-63
2023/05/02 02:25:05;;;;;;;24.88;5.53;;;8.70;99.90;;;;;;4988933;28;20050;-63
2023/05/02 02:27:31;;;;;;;29.30;6.45;;;8.70;99.90;;;;;;4968530;28;20329;-63
2023/05/02 02:29:56;;;;;;;30.40;6.07;;;8.60;99.90;;;;;;4973763;28;20104;-63
2023/05/02 02:32:23;;;;;;;29.95;5.53;;;8.60;99.90;;;;;;4986451;28;20049;-63
2023/05/02 02:34:49;;;;;;;29.15;6.18;;;8.60;99.90;;;;;;4989339;28;20764;-62
2023/05/02 02:37:24;;;;;;;23.05;5.15;;;8.50;99.90;;;;;;4975459;28;20191;-64
2023/05/02 02:39:56;;;;;;;18.73;4.75;;;8.50;99.90;;;;;;4988867;28;20112;-63
2023/05/02 02:42:26;;;;;;;20.90;5.25;;;8.40;99.90;;;;;;4975673;28;20042;-62
2023/05/02 02:45:02;;;;;;;23.30;4.72;;;8.40;99.90;;;;;;4987154;28;20393;-63
2023/05/02 02:47:42;;;;;;;24.00;4.90;;;8.30;99.90;;;;;;4986729;28;20049;-62
2023/05/02 02:50:19;;;;;;;22.95;4.97;;;8.30;99.90;;;;;;4988398;28;20153;-63
2023/05/02 02:52:52;;;;;;;22.45;4.50;;;8.30;99.90;;;;;;4989313;28;20057;-64
2023/05/02 02:55:30;;;;;;;19.50;4.30;;;8.20;99.90;;;;;;4987521;28;20049;-64
2023/05/02 02:58:16;;;;;;;19.50;4.00;;;8.20;99.90;;;;;;4988226;28;20050;-64
2023/05/02 03:00:42;;;;;;;26.10;4.28;;;8.10;99.90;;;;;;4975657;28;20567;-64
2023/05/02 03:03:09;;;;;;;15.93;3.92;;;8.10;99.90;;;;;;4987678;28;20054;-63
2023/05/02 03:05:35;;;;;;;17.00;3.83;;;8.00;99.90;;;;;;4967506;28;20395;-63
2023/05/02 03:08:01;;;;;;;18.38;4.00;;;8.00;99.90;;;;;;4986727;28;20058;-63
2023/05/02 03:10:26;;;;;;;24.55;3.65;;;7.90;99.90;;;;;;4987014;28;20496;-62
2023/05/02 03:12:55;;;;;;;16.02;4.13;;;7.90;99.90;;;;;;4977061;28;20115;-63
2023/05/02 03:15:32;;;;;;;28.48;3.72;;;7.90;99.90;;;;;;4959647;28;20080;-62
2023/05/02 03:17:58;;;;;;;19.80;3.63;;;7.90;99.90;;;;;;4986015;28;20062;-64
2023/05/02 03:20:24;;;;;;;14.48;3.03;;;7.80;99.90;;;;;;4987216;28;21011;-63
2023/05/02 03:22:49;;;;;;;13.45;3.55;;;7.80;99.90;;;;;;4967157;28;20092;-63
2023/05/02 03:25:15;;;;;;;14.52;3.10;;;7.80;99.90;;;;;;4987205;28;20046;-62
2023/05/02 03:27:41;;;;;;;17.05;3.25;;;7.80;99.90;;;;;;4974703;28;20523;-63
2023/05/02 03:30:07;;;;;;;14.45;3.53;;;7.80;99.90;;;;;;4987542;28;20412;-62
2023/05/02 03:32:33;;;;;;;15.75;3.38;;;7.80;99.90;;;;;;4990268;28;20143;-63
2023/05/02 03:34:59;;;;;;;13.35;3.22;;;7.80;99.90;;;;;;4986861;28;20049;-64
2023/05/02 03:37:24;;;;;;;12.35;2.78;;;7.70;99.90;;;;;;4987096;28;20061;-62
2023/05/02 03:39:50;;;;;;;17.08;3.33;;;7.70;99.90;;;;;;4974797;28;20041;-63
2023/05/02 03:42:16;;;;;;;17.50;2.72;;;7.70;99.90;;;;;;4987388;28;20556;-62
2023/05/02 03:44:41;;;;;;;13.82;2.67;;;7.70;99.90;;;;;;4992480;28;20129;-63
2023/05/02 03:47:07;;;;;;;9.23;2.35;;;7.70;99.90;;;;;;4987031;28;20042;-63
2023/05/02 03:49:36;;;;;;;10.90;2.72;;;7.60;99.90;;;;;;4977015;28;20409;-64
2023/05/02 03:52:02;;;;;;;12.77;2.55;;;7.60;99.90;;;;;;4986238;28;20049;-62
2023/05/02 03:54:31;;;;;;;8.88;2.53;;;7.60;99.90;;;;;;4988215;28;20042;-64
2023/05/02 03:56:58;;;;;;;15.48;2.85;;;7.50;99.90;;;;;;4986619;28;20073;-62
2023/05/02 03:59:24;;;;;;;9.23;2.55;;;7.50;99.90;;;;;;4987670;28;20038;-64
2023/05/02 04:01:49;;;;;;;10.45;2.65;;;7.50;99.90;;;;;;4987855;28;20057;-64
2023/05/02 04:04:15;;;;;;;12.20;2.92;;;7.50;99.90;;;;;;4993125;28;20042;-63
2023/05/02 04:06:41;;;;;;;8.50;3.05;;;7.50;99.90;;;;;;4992671;28;20056;-63
2023/05/02 04:09:07;;;;;;;6.88;2.47;;;7.50;99.90;;;;;;5010379;28;20448;-62
2023/05/02 04:11:33;;;;;;;10.25;2.13;;;7.50;99.90;;;;;;4973628;28;20686;-64
2023/05/02 04:13:58;;;;;;;11.90;2.40;;;7.40;99.90;;;;;;4994416;28;20081;-63
2023/05/02 04:16:24;;;;;;;11.80;2.35;;;7.40;99.90;;;;;;4978841;28;20132;-64
2023/05/02 04:18:50;;;;;;;13.70;2.38;;;7.40;99.90;;;;;;4979437;28;20500;-62
2023/05/02 04:21:16;;;;;;;13.93;2.60;;;7.40;99.90;;;;;;4994978;28;20044;-62
2023/05/02 04:23:42;;;;;;;7.20;2.42;;;7.40;99.90;;;;;;4979836;28;20044;-63
2023/05/02 04:26:07;;;;;;;8.55;2.22;;;7.40;99.90;;;;;;4991327;28;20040;-62
2023/05/02 04:28:34;;;;;;;14.18;2.33;;;7.30;99.90;;;;;;4993189;28;20484;-63
2023/05/02 04:31:02;;;;;;;11.55;2.53;;;7.30;99.90;;;;;;4992373;28;20046;-62
2023/05/02 04:33:27;;;;;;;12.32;2.28;;;7.30;99.90;;;;;;4964600;28;20044;-64
2023/05/02 04:35:53;;;;;;;13.15;2.97;;;7.30;99.90;;;;;;4991785;28;20045;-63
2023/05/02 04:38:19;;;;;;;13.90;3.10;;;7.30;99.90;;;;;;4991501;28;20045;-64
2023/05/02 04:40:45;;;;;;;7.53;3.15;;;7.30;99.90;;;;;;4967755;28;20050;-62
2023/05/02 04:43:10;;;;;;;9.65;2.95;;;7.20;99.90;;;;;;4992901;28;20131;-63
2023/05/02 04:45:36;;;;;;;11.60;2.70;;;7.20;99.90;;;;;;4989867;28;20088;-64
2023/05/02 04:48:03;;;;;;;10.15;2.97;;;7.30;99.90;;;;;;4991319;28;20049;-62
2023/05/02 04:50:28;;;;;;;12.93;2.83;;;7.30;99.90;;;;;;4966162;28;20570;-62
2023/05/02 04:52:54;;;;;;;14.40;3.15;;;7.20;99.90;;;;;;4991344;28;20042;-63
2023/05/02 04:55:20;;;;;;;15.35;3.50;;;7.20;99.90;;;;;;4992690;28;20056;-63
2023/05/02 04:57:46;;;;;;;10.93;3.08;;;7.30;99.90;;;;;;4981451;28;20096;-62
2023/05/02 05:00:12;;;;;;;16.75;3.17;;;7.30;99.90;;;;;;4992616;28;20048;-63
2023/05/02 05:02:38;;;;;;;16.77;3.50;;;7.30;99.90;;;;;;4977249;28;20053;-63
2023/05/02 05:05:05;;;;;;;12.63;3.40;;;7.30;99.90;;;;;;4984646;28;20487;-62
2023/05/02 05:07:30;;;;;;;11.73;3.35;;;7.30;99.90;;;;;;4992319;28;20165;-64
2023/05/02 05:09:56;;;;;;;16.83;3.63;;;7.30;99.90;;;;;;4974965;28;20551;-63
2023/05/02 05:12:22;;;;;;;12.35;3.42;;;7.30;99.90;;;;;;4982474;28;20516;-64
2023/05/02 05:14:49;;;;;;;9.93;3.00;;;7.30;99.90;;;;;;4996180;28;20046;-64
2023/05/02 05:17:15;;;;;;;13.15;3.08;;;7.30;99.90;;;;;;4980569;28;20057;-63
2023/05/02 05:19:41;;;;;;;14.88;3.60;;;7.30;99.90;;;;;;4994146;28;20212;-62
2023/05/02 05:22:07;;;;;;;16.88;3.35;;;7.40;99.90;;;;;;4994532;28;20049;-63
2023/05/02 05:24:33;;;;;;;21.08;3.80;;;7.40;99.90;;;;;;4997476;28;20056;-63
2023/05/02 05:26:58;;;;;;;14.65;3.33;;;7.30;99.90;;;;;;4994406;28;20169;-62
2023/05/02 05:29:24;;;;;;;20.83;3.58;;;7.40;99.90;;;;;;4998327;28;20843;-64
2023/05/02 05:31:50;;;;;;;12.60;3.60;;;7.30;99.90;;;;;;4983073;28;20057;-63
2023/05/02 05:34:16;;;;;;;14.20;3.58;;;7.30;99.90;;;;;;4995835;28;20037;-62
2023/05/02 05:36:42;;;;;;;19.48;4.10;;;7.30;99.90;;;;;;4995319;28;20085;-63
2023/05/02 05:39:09;;;;;;;16.25;3.80;;;7.40;99.90;;;;;;4978804;28;22426;-63
2023/05/02 05:41:34;;;;;;;11.05;3.25;;;7.30;99.90;;;;;;4961776;28;20041;-62
2023/05/02 05:44:00;;;;;;;19.92;4.00;;;7.30;99.90;;;;;;4999095;28;20369;-63
2023/05/02 05:46:26;;;;;;;14.73;3.80;;;7.40;99.90;;;;;;4995899;28;20049;-63
2023/05/02 05:48:51;;;;;;;12.13;3.35;;;7.40;99.90;;;;;;4987649;28;20999;-63
2023/05/02 05:51:17;;;;;;;14.38;3.90;;;7.40;99.90;;;;;;4980404;28;20044;-64
2023/05/02 05:53:43;;;;;;;15.10;3.58;;;7.40;99.90;;;;;;4985528;28;20408;-63
2023/05/02 05:56:12;;;;;;;16.63;3.72;;;7.50;99.90;;;;;;4986939;28;20124;-63
2023/05/02 05:58:39;;;;;;;10.95;3.30;;;7.50;99.90;;;;;;4999056;28;20132;-62
2023/05/02 06:01:05;;;;;;;10.02;3.22;;;7.50;99.90;;;;;;5010950;28;20046;-62
2023/05/02 06:03:31;;;;;;;12.75;3.78;;;7.50;99.90;;;;;;4984628;28;20061;-64
2023/05/02 06:05:57;;;;;;;13.13;3.78;;;7.50;99.90;;;;;;4984726;28;20459;-62
2023/05/02 06:08:23;;;;;;;16.38;2.85;;;7.50;99.90;;;;;;5000159;28;20041;-63
2023/05/02 06:10:48;;;;;;;18.25;3.15;;;7.50;99.90;;;;;;4989896;28;20044;-62
2023/05/02 06:13:14;;;;;;;12.73;3.38;;;7.50;99.90;;;;;;4997622;28;20049;-62
2023/05/02 06:15:40;;;;;;;9.77;3.50;;;7.50;99.90;;;;;;4995820;28;20068;-64
2023/05/02 06:18:06;;;;;;;11.88;3.15;;;7.50;99.90;;;;;;5001872;28;20062;-63
2023/05/02 06:20:31;;;;;;;13.52;3.22;;;7.50;99.90;;;;;;5001303;28;20464;-62
2023/05/02 06:22:57;;;;;;;13.50;3.28;;;7.50;99.90;;;;;;4997311;28;20112;-62
2023/05/02 06:25:23;;;;;;;10.07;2.78;;;7.50;99.90;;;;;;4969007;28;20055;-64
2023/05/02 06:27:49;;;;;;;15.20;3.42;;;7.50;99.90;;;;;;4978592;28;20401;-62
2023/05/02 06:30:15;;;;;;;17.52;4.22;;;7.50;99.90;;;;;;4985675;28;20135;-64
2023/05/02 06:32:42;;;;;;;16.52;3.45;;;7.50;99.90;;;;;;4978199;28;21031;-63
2023/05/02 06:35:10;;;;;;;9.93;3.08;;;7.50;99.90;;;;;;4997849;28;20088;-64
2023/05/02 06:37:35;;;;;;;16.75;4.07;;;7.50;99.90;;;;;;4998872;28;20049;-63
2023/05/02 06:40:02;;;;;;;13.55;3.30;;;7.60;99.90;;;;;;4994864;28;20050;-63
2023/05/02 06:42:28;;;;;;;13.73;3.80;;;7.60;99.90;;;;;;4997366;28;22125;-64
2023/05/02 06:44:54;;;;;;;10.13;3.30;;;7.60;99.90;;;;;;4985805;28;20050;-64
2023/05/02 06:47:23;;;;;;;14.57;3.40;;;7.60;99.90;;;;;;4996993;28;20590;-63
2023/05/02 06:49:52;;;;;;;12.50;3.00;;;7.60;99.90;;;;;;4971387;28;20061;-63
2023/05/02 06:52:18;;;;;;;9.40;2.92;;;7.70;99.90;;;;;;4972531;28;20049;-63
2023/05/02 06:54:44;;;;;;;13.02;2.88;;;7.70;99.90;;;;;;4985865;28;20365;-63
2023/05/02 06:57:10;;;;;;;12.00;4.13;;;7.70;99.80;;;;;;5004132;28;20583;-62
2023/05/02 06:59:36;;;;;;;12.15;3.03;;;7.70;99.80;;;;;;4995952;28;20045;-62
2023/05/02 07:02:02;;;;;;;11.55;3.50;;;7.80;99.70;;;;;;4978486;28;20069;-63
2023/05/02 07:04:28;;;;;;;12.32;3.47;;;7.80;99.80;;;;;;5004755;28;20041;-62
2023/05/02 07:06:53;;;;;;;12.60;3.30;;;7.90;99.80;;;;;;4994961;28;20037;-64
2023/05/02 07:09:19;;;;;;;15.45;2.92;;;7.90;99.90;;;;;;4999046;28;20055;-63
2023/05/02 07:11:45;;;;;;;17.08;3.05;;;8.00;99.90;;;;;;4989723;28;20132;-63
2023/05/02 07:14:11;;;;;;;16.85;3.00;;;8.00;99.80;;;;;;4995675;28;20073;-63
2023/05/02 07:16:36;;;;;;;17.30;3.55;;;8.00;99.60;;;;;;4998319;28;20638;-63
2023/05/02 07:19:05;;;;;;;15.57;3.72;;;8.10;99.50;;;;;;4999365;28;20484;-62
2023/05/02 07:21:31;;;;;;;11.45;3.30;;;8.10;99.60;;;;;;4972691;28;20116;-64
2023/05/02 07:23:57;;;;;;;12.48;3.17;;;8.10;99.50;;;;;;4996519;28;20668;-63
2023/05/02 07:26:24;;;;;;;13.50;3.20;;;8.10;99.60;;;;;;4996718;28;20124;-63
2023/05/02 07:28:49;;;;;;;10.63;3.55;;;8.10;99.90;;;;;;4971861;28;20602;-63
2023/05/02 07:31:15;;;;;;;10.20;3.25;;;8.20;99.90;;;;;;4998622;28;20046;-64
2023/05/02 07:33:41;;;;;;;19.20;3.50;;;8.20;99.90;;;;;;4997013;28;20111;-63
2023/05/02 07:36:07;;;;;;;15.80;2.67;;;8.20;99.80;;;;;;4998055;28;20047;-63
2023/05/02 07:38:32;;;;;;;8.30;2.63;;;8.30;99.80;;;;;;5009550;28;20038;-63
2023/05/02 07:41:00;;;;;;;7.00;2.25;;;8.40;99.60;;;;;;4981136;28;20041;-62
2023/05/02 07:43:26;;;;;;;8.25;2.35;;;8.40;99.40;;;;;;4993661;28;20373;-63
2023/05/02 07:45:52;;;;;;;11.02;3.08;;;8.50;99.30;;;;;;4995795;28;20053;-64
2023/05/02 07:48:19;;;;;;;9.07;2.78;;;8.70;99.30;;;;;;4995933;28;20034;-63
2023/05/02 07:50:45;;;;;;;5.97;2.13;;;8.70;99.40;;;;;;4988607;28;20041;-63
2023/05/02 07:53:10;;;;;;;10.65;2.38;;;8.80;99.10;;;;;;4980908;28;20052;-64
2023/05/02 07:55:36;;;;;;;6.10;2.30;;;8.90;99.00;;;;;;4987381;28;20046;-63
2023/05/02 07:58:02;;;;;;;6.60;2.17;;;8.90;99.10;;;;;;4971108;28;20037;-62
2023/05/02 08:00:29;;;;;;;6.50;2.22;;;8.90;99.30;;;;;;4991500;28;20046;-63
2023/05/02 08:02:55;;;;;;;10.70;2.05;;;8.90;99.40;;;;;;4987779;28;20053;-64
2023/05/02 08:05:21;;;;;;;7.28;2.13;;;8.90;99.50;;;;;;5009732;28;20059;-62
2023/05/02 08:07:47;;;;;;;5.65;2.35;;;8.90;99.60;;;;;;4971799;28;20049;-62
2023/05/02 08:10:12;;;;;;;8.15;2.30;;;8.90;99.60;;;;;;4997559;28;20132;-63
2023/05/02 08:12:41;;;;;;;8.65;2.00;;;9.00;99.40;;;;;;4987281;28;20136;-62
2023/05/02 08:15:12;;;;;;;7.15;1.50;;;9.00;99.20;;;;;;4987627;28;20079;-64
2023/05/02 08:17:38;;;;;;;8.25;2.10;;;9.00;98.40;;;;;;4998482;28;20047;-62
2023/05/02 08:20:04;;;;;;;4.22;1.60;;;9.10;98.20;;;;;;4982385;28;21298;-63
2023/05/02 08:22:30;;;;;;;3.22;1.42;;;9.20;98.10;;;;;;4995402;28;20050;-62
2023/05/02 08:24:56;;;;;;;7.68;1.80;;;9.30;97.80;;;;;;4996651;28;20058;-62
2023/05/02 08:27:22;;;;;;;3.53;1.40;;;9.40;97.60;;;;;;4978310;28;20079;-64
2023/05/02 08:29:47;;;;;;;3.75;1.73;;;9.50;97.70;;;;;;4983150;28;20576;-63
2023/05/02 08:32:13;;;;;;;6.50;1.60;;;9.60;97.50;;;;;;4994961;28;20076;-63
2023/05/02 08:34:39;;;;;;;5.22;1.55;;;9.70;97.40;;;;;;4995421;28;20081;-64
2023/05/02 08:37:09;;;;;;;7.10;1.95;;;9.80;96.40;;;;;;4993755;28;20662;-64
2023/05/02 08:39:34;;;;;;;4.15;1.50;;;9.90;95.50;;;;;;4985545;28;20489;-64
2023/05/02 08:42:01;;;;;;;5.50;1.33;;;10.00;95.80;;;;;;4983036;28;20045;-63
2023/05/02 08:44:26;;;;;;;4.93;1.58;;;10.10;95.50;;;;;;4985750;28;20491;-63
2023/05/02 08:46:54;;;;;;;4.93;1.52;;;10.30;95.40;;;;;;4994563;28;20396;-62
2023/05/02 08:49:21;;;;;;;7.78;1.65;;;10.50;95.00;;;;;;5010304;28;20057;-64
2023/05/02 08:51:50;;;;;;;3.10;1.33;;;10.70;94.40;;;;;;4994010;28;20162;-63
2023/05/02 08:54:17;;;;;;;4.60;1.70;;;10.70;94.50;;;;;;4994389;28;20045;-63
2023/05/02 08:56:44;;;;;;;7.53;1.80;;;10.80;94.40;;;;;;5012088;28;20053;-62
2023/05/02 08:59:10;;;;;;;7.10;1.77;;;10.60;94.00;;;;;;4994545;28;20160;-63
2023/05/02 09:01:40;;;;;;;5.07;1.73;;;10.60;94.60;;;;;;4985104;28;20594;-62
2023/05/02 09:04:06;;;;;;;7.03;1.63;;;10.50;94.70;;;;;;4989448;28;20042;-63
2023/05/02 09:06:32;;;;;;;6.63;1.88;;;10.40;94.80;;;;;;4994445;28;20061;-64
2023/05/02 09:08:59;;;;;;;9.80;1.67;;;10.40;95.10;;;;;;4985074;28;20080;-63
2023/05/02 09:11:25;;;;;;;7.38;1.50;;;10.30;95.30;;;;;;4992895;28;20057;-64
2023/05/02 09:13:51;;;;;;;14.50;1.88;;;10.30;95.70;;;;;;4994077;28;20484;-63
2023/05/02 09:16:22;;;;;;;7.75;1.60;;;10.20;96.20;;;;;;4977050;28;20152;-63
2023/05/02 09:18:49;;;;;;;6.25;1.40;;;10.20;97.00;;;;;;4994220;28;20049;-64
2023/05/02 09:21:18;;;;;;;4.90;1.45;;;10.10;97.30;;;;;;4995077;28;20041;-64
2023/05/02 09:23:55;;;;;;;5.55;1.30;;;10.10;97.30;;;;;;4992005;28;20060;-62
2023/05/02 09:26:25;;;;;;;5.78;1.58;;;10.00;97.00;;;;;;5001829;28;20504;-64
2023/05/02 09:28:53;;;;;;;6.13;1.58;;;10.00;97.10;;;;;;4992832;28;20156;-64
2023/05/02 09:31:22;;;;;;;3.67;1.13;;;10.00;97.10;;;;;;4994945;28;20111;-64
2023/05/02 09:33:48;;;;;;;4.88;1.40;;;10.20;97.00;;;;;;4972782;28;20041;-63
2023/05/02 09:36:16;;;;;;;7.50;1.95;;;10.30;96.90;;;;;;4993818;28;20504;-64
2023/05/02 09:38:43;;;;;;;4.32;1.73;;;10.50;96.50;;;;;;4986276;28;20034;-64
2023/05/02 09:41:09;;;;;;;3.67;1.52;;;10.60;96.40;;;;;;4993918;28;20033;-64
2023/05/02 09:43:39;;;;;;;4.13;1.60;;;10.70;96.40;;;;;;4990886;28;20618;-63
2023/05/02 09:46:10;;;;;;;6.93;1.50;;;10.70;96.60;;;;;;4991239;28;20033;-63
2023/05/02 09:48:55;;;;;;;6.60;1.70;;;10.70;96.40;;;;;;4991444;28;20038;-63
2023/05/02 09:51:22;;;;;;;2.80;1.10;;;10.70;95.90;;;;;;4986755;28;20994;-63
2023/05/02 09:53:48;;;;;;;4.07;1.35;;;10.60;96.10;;;;;;5003458;28;20206;-63
2023/05/02 09:56:15;;;;;;;3.55;1.50;;;10.60;96.00;;;;;;4994714;28;20187;-63
2023/05/02 09:58:40;;;;;;;4.57;1.27;;;10.50;95.80;;;;;;4992878;28;20088;-62
2023/05/02 10:01:06;;;;;;;4.55;1.15;;;10.50;95.90;;;;;;4987032;28;20045;-63
2023/05/02 10:03:36;;;;;;;4.70;1.33;;;10.60;95.60;;;;;;4997177;28;20061;-63
2023/05/02 10:06:05;;;;;;;6.00;1.30;;;11.00;96.30;;;;;;4996343;28;20475;-63
2023/05/02 10:08:32;;;;;;;2.88;1.27;;;11.30;95.60;;;;;;4998915;28;20052;-64
2023/05/02 10:10:59;;;;;;;7.35;1.40;;;11.40;93.80;;;;;;4997433;28;20064;-64
2023/05/02 10:13:30;;;;;;;4.50;1.30;;;11.40;94.10;;;;;;4989218;28;20041;-63
2023/05/02 10:16:01;;;;;;;4.65;1.60;;;11.50;94.30;;;;;;4996722;28;20504;-63
2023/05/02 10:18:30;;;;;;;8.25;1.25;;;11.60;94.20;;;;;;4998479;28;20091;-63
2023/05/02 10:21:06;;;;;;;5.70;1.40;;;11.70;94.00;;;;;;4998928;28;20038;-63
2023/05/02 10:23:33;;;;;;;6.47;1.33;;;11.60;93.60;;;;;;5006036;28;20042;-63
2023/05/02 10:25:59;;;;;;;3.80;1.45;;;11.50;93.50;;;;;;4995947;28;20048;-64
2023/05/02 10:28:29;;;;;;;4.43;1.60;;;11.40;93.50;;;;;;4996429;28;20038;-64
2023/05/02 10:30:57;;;;;;;3.90;1.33;;;11.40;93.50;;;;;;4994569;28;20046;-63
2023/05/02 10:33:23;;;;;;;7.25;1.70;;;11.40;93.50;;;;;;4983878;28;20120;-63
2023/05/02 10:35:49;;;;;;;5.03;1.80;;;11.30;93.70;;;;;;4982731;28;20129;-63
2023/05/02 10:38:20;;;;;;;7.75;1.50;;;11.20;94.50;;;;;;4994590;28;20037;-62
2023/05/02 10:41:12;;;;;;;7.97;1.60;;;11.00;95.50;;;;;;5003163;28;20050;-63
2023/05/02 10:43:38;;;;;;;3.45;1.52;;;10.90;96.50;;;;;;4987510;28;20085;-63
2023/05/02 10:46:33;;;;;;;5.57;1.40;;;10.80;97.20;;;;;;4994395;28;20112;-62
2023/05/02 10:49:10;;;;;;;7.35;1.40;;;10.60;97.70;;;;;;4994701;28;20049;-62
2023/05/02 10:51:38;;;;;;;6.68;1.60;;;10.60;97.90;;;;;;4997819;28;20054;-64
2023/05/02 10:54:18;;;;;;;7.40;1.67;;;10.60;98.20;;;;;;4997356;28;20103;-63
2023/05/02 10:57:02;;;;;;;6.30;1.65;;;10.60;98.40;;;;;;4983554;28;20092;-63
2023/05/02 10:59:30;;;;;;;4.70;1.45;;;10.60;98.50;;;;;;4994975;28;20401;-63
2023/05/02 11:01:56;;;;;;;4.10;1.60;;;11.00;98.60;;;;;;4996482;28;20124;-63
2023/05/02 11:04:22;;;;;;;2.38;1.15;;;11.40;97.90;;;;;;4992869;28;20037;-62
2023/05/02 11:07:01;;;;;;;2.25;1.23;;;11.80;97.00;;;;;;4994187;28;20506;-64
2023/05/02 11:09:26;;;;;;;4.15;0.90;;;12.20;95.50;;;;;;4996890;28;20586;-63
2023/05/02 11:11:55;;;;;;;4.32;0.98;;;12.60;95.00;;;;;;5012617;28;20091;-63
2023/05/02 11:14:29;;;;;;;7.50;1.20;;;12.70;93.80;;;;;;4994873;28;20085;-62
2023/05/02 11:16:58;;;;;;;4.35;1.25;;;12.80;93.60;;;;;;4978035;28;20073;-63
2023/05/02 11:19:25;;;;;;;5.95;1.50;;;13.00;93.20;;;;;;4998452;28;20077;-62
2023/05/02 11:21:56;;;;;;;6.90;1.20;;;13.00;93.30;;;;;;4970488;28;20037;-63
2023/05/02 11:24:43;;;;;;;3.75;1.10;;;12.90;93.30;;;;;;5001669;28;20400;-64
2023/05/02 11:27:43;;;;;;;5.65;1.48;;;12.70;92.60;;;;;;5001618;28;21152;-63
2023/05/02 11:30:10;;;;;;;7.53;1.50;;;12.60;93.40;;;;;;4946236;28;20054;-64
2023/05/02 11:32:45;;;;;;;5.72;1.40;;;12.50;93.10;;;;;;4995139;28;20461;-63
2023/05/02 11:35:22;;;;;;;4.15;1.25;;;12.50;92.70;;;;;;4995716;28;20459;-64
2023/05/02 11:37:55;;;;;;;3.42;0.90;;;12.50;92.90;;;;;;4992850;28;20421;-63
2023/05/02 11:40:22;;;;;;;3.30;1.10;;;12.40;92.70;;;;;;4994532;28;20447;-63
2023/05/02 11:42:48;;;;;;;6.43;1.20;;;12.30;92.90;;;;;;4984581;28;20045;-63
2023/05/02 11:45:14;;;;;;;5.10;1.35;;;12.30;93.00;;;;;;4994753;28;20073;-63
2023/05/02 11:47:41;;;;;;;2.00;0.70;;;12.20;92.60;;;;;;4992671;28;20073;-63
2023/05/02 11:50:10;;;;;;;1.80;0.70;;;12.10;91.70;;;;;;4995875;28;20064;-63
2023/05/02 11:52:41;;;;;;;2.53;0.80;;;12.00;90.90;;;;;;4994541;28;20077;-63
2023/05/02 11:55:10;;;;;;;2.55;0.80;;;12.20;90.70;;;;;;5003003;28;20049;-63
2023/05/02 11:57:36;;;;;;;1.85;0.70;;;12.50;90.00;;;;;;5000971;28;20045;-63
2023/05/02 12:00:03;;;;;;;3.35;0.85;;;12.90;88.60;;;;;;4984617;28;20376;-63
2023/05/02 12:02:37;;;;;;;1.42;0.70;;;13.10;86.90;;;;;;4991617;28;20064;-63
2023/05/02 12:05:07;;;;;;;2.17;0.70;;;13.20;86.60;;;;;;4996076;28;20037;-63
2023/05/02 12:07:44;;;;;;;3.08;0.80;;;13.10;83.20;;;;;;4998775;28;20037;-64
2023/05/02 12:10:11;;;;;;;1.50;0.70;;;13.10;82.90;;;;;;4990110;28;20287;-64
2023/05/02 12:12:39;;;;;;;3.70;0.88;;;13.00;82.20;;;;;;4995977;28;20124;-63
2023/05/02 12:15:06;;;;;;;2.20;0.75;;;12.90;80.80;;;;;;4995611;28;20129;-63
2023/05/02 12:17:33;;;;;;;3.95;0.65;;;12.90;81.10;;;;;;4991087;28;20052;-63
2023/05/02 12:20:01;;;;;;;2.78;0.80;;;12.80;80.70;;;;;;4995888;28;20091;-63
2023/05/02 12:22:27;;;;;;;2.83;0.95;;;13.00;81.70;;;;;;4993598;28;20044;-64
2023/05/02 12:24:53;;;;;;;1.50;0.57;;;13.40;81.20;;;;;;4988784;28;20469;-63
2023/05/02 12:27:19;;;;;;;2.10;0.95;;;13.80;81.60;;;;;;4997070;28;20103;-63
2023/05/02 12:29:46;;;;;;;2.22;0.80;;;14.10;81.20;;;;;;4998651;28;20132;-63
2023/05/02 12:32:14;;;;;;;2.25;0.73;;;14.40;80.10;;;;;;4991765;28;20038;-64
2023/05/02 12:34:40;;;;;;;4.65;0.80;;;14.70;79.60;;;;;;4982800;28;20473;-64
2023/05/02 12:37:07;;;;;;;3.30;0.80;;;15.00;77.50;;;;;;4995191;28;20040;-63
2023/05/02 12:39:42;;;;;;;2.45;0.60;;;15.30;76.50;;;;;;4987710;28;20052;-63
2023/05/02 12:42:16;;;;;;;6.28;1.15;;;15.50;75.40;;;;;;4999372;28;20128;-63
2023/05/02 12:44:47;;;;;;;3.45;0.90;;;15.50;72.40;;;;;;4978412;28;20104;-63
2023/05/02 12:47:15;;;;;;;3.63;0.90;;;15.10;71.30;;;;;;4977417;28;20049;-63
2023/05/02 12:49:57;;;;;;;3.67;0.93;;;14.70;73.60;;;;;;4995391;28;20046;-63
2023/05/02 12:52:45;;;;;;;7.50;1.20;;;14.40;74.00;;;;;;4978050;28;20042;-63
2023/05/02 12:55:26;;;;;;;3.40;1.42;;;14.10;77.40;;;;;;4999834;28;20048;-62